Time;durP1;ratioP1;P1;durP2;ratioP2;P2;SDS_P1;SDS_P2;PMS_P1;PMS_P2;Temp;Humidity;BMP_temperature;BMP_pressure;BME280_temperature;BME280_humidity;BME280_pressure;Samples;Min_cycle;Max_cycle;Signal;HPM_P1;HPM_P2
2023/06/05 00:01:14;;;;;;;13.03;5.13;;;;;;;40.73;38.07;101241.03;5052783;28;20560;-82
2023/06/05 00:03:43;;;;;;;10.00;5.60;;;;;;;40.72;38.10;101242.97;5052678;28;20426;-83
2023/06/05 00:06:10;;;;;;;14.73;5.70;;;;;;;40.76;38.47;101233.06;5052877;28;20423;-83
2023/06/05 00:08:35;;;;;;;18.30;7.37;;;;;;;40.79;38.43;101239.78;5052263;28;20914;-82
2023/06/05 00:11:01;;;;;;;14.63;6.13;;;;;;;40.88;38.38;101237.84;5052771;28;20513;-84
2023/06/05 00:13:27;;;;;;;13.17;5.87;;;;;;;40.79;38.45;101245.22;5052305;28;20433;-82
2023/06/05 00:15:53;;;;;;;11.67;7.37;;;;;;;40.77;37.97;101247.47;5051815;28;20423;-82
2023/06/05 00:18:20;;;;;;;19.70;7.10;;;;;;;40.62;38.52;101237.81;5052356;28;20564;-83
2023/06/05 00:20:46;;;;;;;14.63;6.10;;;;;;;40.76;38.14;101248.56;5052569;28;20422;-83
2023/06/05 00:23:13;;;;;;;19.03;5.87;;;;;;;40.83;38.19;101235.31;5052181;28;20414;-83
2023/06/05 00:25:39;;;;;;;23.53;6.70;;;;;;;40.83;38.57;101232.59;5051140;28;20184;-83
2023/06/05 00:28:05;;;;;;;13.30;6.50;;;;;;;40.87;38.09;101233.53;5052154;28;20503;-83
2023/06/05 00:30:31;;;;;;;13.93;6.90;;;;;;;40.80;38.39;101234.00;5052345;28;20926;-83
2023/06/05 00:32:57;;;;;;;13.43;4.70;;;;;;;40.87;38.11;101224.59;5051457;28;20427;-83
2023/06/05 00:35:23;;;;;;;12.67;6.10;;;;;;;40.71;38.43;101224.25;5052144;28;20423;-83
2023/06/05 00:37:49;;;;;;;16.53;6.87;;;;;;;40.84;37.48;101222.50;5042726;28;20823;-83
2023/06/05 00:40:15;;;;;;;11.17;5.60;;;;;;;40.62;38.45;101210.63;5049115;28;20227;-83
2023/06/05 00:42:40;;;;;;;16.83;4.73;;;;;;;40.83;38.37;101216.28;5050867;28;20204;-83
2023/06/05 00:45:07;;;;;;;15.50;5.70;;;;;;;40.86;38.27;101215.63;5053462;28;20949;-83
2023/06/05 00:47:34;;;;;;;17.73;6.93;;;;;;;40.87;38.36;101219.13;5051089;28;20587;-82
2023/06/05 00:50:00;;;;;;;14.17;5.23;;;;;;;40.90;38.65;101221.25;5052962;28;20477;-83
2023/06/05 00:52:28;;;;;;;13.40;5.57;;;;;;;40.91;38.47;101217.44;5033223;28;20424;-83
2023/06/05 00:54:54;;;;;;;15.93;5.97;;;;;;;40.83;38.33;101202.66;5031846;28;20534;-83
2023/06/05 00:57:24;;;;;;;17.63;6.90;;;;;;;40.81;38.59;101202.16;5031386;28;20426;-82
2023/06/05 00:59:50;;;;;;;19.00;5.67;;;;;;;40.90;38.14;101188.59;5028625;28;20519;-84
2023/06/05 01:02:16;;;;;;;16.10;6.50;;;;;;;40.68;38.18;101190.31;5028936;28;20570;-84
2023/06/05 01:04:43;;;;;;;11.40;5.60;;;;;;;40.77;38.35;101182.97;5030216;28;20860;-85
2023/06/05 01:07:16;;;;;;;14.37;6.13;;;;;;;40.77;38.48;101176.75;5029965;28;20191;-85
2023/06/05 01:09:42;;;;;;;15.80;5.83;;;;;;;40.86;38.37;101177.53;5031007;28;20463;-85
2023/06/05 01:12:28;;;;;;;17.07;5.37;;;;;;;40.83;38.61;101171.94;5030513;28;20426;-85
2023/06/05 01:15:00;;;;;;;14.60;4.83;;;;;;;40.61;38.64;101178.31;5030567;28;20420;-85
2023/06/05 01:17:33;;;;;;;15.60;5.50;;;;;;;40.66;38.54;101170.00;5031462;28;20431;-85
2023/06/05 01:20:02;;;;;;;14.53;5.53;;;;;;;40.63;38.55;101168.69;5028686;28;20415;-85
2023/06/05 01:22:30;;;;;;;21.67;6.40;;;;;;;40.84;38.18;101168.91;5031432;28;20415;-84
2023/06/05 01:24:57;;;;;;;18.30;6.07;;;;;;;40.74;38.92;101171.91;5031117;28;20428;-85
2023/06/05 01:27:32;;;;;;;20.50;6.17;;;;;;;40.80;38.21;101166.00;5028819;28;20490;-85
2023/06/05 01:30:14;;;;;;;13.67;5.03;;;;;;;40.84;38.11;101168.09;5028451;28;20997;-85
2023/06/05 01:33:05;;;;;;;17.17;6.10;;;;;;;40.86;38.26;101163.13;5040736;28;20420;-84
2023/06/05 01:35:33;;;;;;;12.80;5.00;;;;;;;40.74;38.53;101171.91;5029600;28;20451;-85
2023/06/05 01:38:02;;;;;;;20.27;5.97;;;;;;;40.65;38.69;101171.94;5028554;28;20425;-85
2023/06/05 01:40:30;;;;;;;15.97;5.63;;;;;;;40.75;38.93;101163.44;5028431;28;20420;-83
2023/06/05 02:49:37;;;;;;;12.17;6.80;;;;;;;40.85;39.33;101151.44;5051879;28;20460;-87
2023/06/05 02:52:04;;;;;;;14.30;7.20;;;;;;;40.62;39.66;101147.28;5045399;28;20508;-85
2023/06/05 03:28:06;;;;;;;19.60;6.37;;;;;;;40.83;37.53;101129.22;5074595;28;20402;-84
2023/06/05 03:30:32;;;;;;;12.00;5.30;;;;;;;40.70;38.10;101117.38;5056014;28;20445;-85
2023/06/05 03:32:58;;;;;;;11.50;4.83;;;;;;;40.79;38.34;101118.16;5056388;28;20267;-85
2023/06/05 03:35:24;;;;;;;26.90;7.17;;;;;;;40.83;37.58;101115.63;5056610;28;20183;-84
2023/06/05 03:37:50;;;;;;;24.53;7.43;;;;;;;40.86;38.05;101114.97;5056348;28;20476;-85
2023/06/05 03:40:16;;;;;;;16.70;7.07;;;;;;;40.87;38.10;101118.47;5056155;28;20597;-85
2023/06/05 03:42:42;;;;;;;15.00;6.00;;;;;;;40.78;38.24;101121.22;5056368;28;20453;-86
2023/06/05 03:45:08;;;;;;;10.77;5.37;;;;;;;40.86;38.02;101123.13;5056417;28;20467;-86
2023/06/05 03:47:34;;;;;;;12.93;5.83;;;;;;;40.75;38.36;101114.47;5056063;28;20176;-85
2023/06/05 03:50:02;;;;;;;11.60;4.67;;;;;;;40.73;38.11;101105.84;5066267;23;20483;-85
2023/06/05 03:52:29;;;;;;;16.50;5.30;;;;;;;40.65;38.03;101112.09;5032889;28;20428;-83
2023/06/05 03:54:55;;;;;;;11.27;5.97;;;;;;;40.80;38.21;101108.88;5032798;28;20459;-83
2023/06/05 03:57:22;;;;;;;20.73;5.57;;;;;;;40.79;38.06;101104.56;5032791;28;20502;-84
2023/06/05 03:59:48;;;;;;;14.27;7.27;;;;;;;40.84;38.07;101110.97;5019981;28;20540;-85
2023/06/05 04:02:14;;;;;;;17.60;5.67;;;;;;;40.87;38.53;101126.66;5012999;28;20491;-85
2023/06/05 04:04:40;;;;;;;14.70;6.70;;;;;;;40.77;38.17;101106.03;5012984;28;20452;-84
2023/06/05 04:07:06;;;;;;;22.47;9.17;;;;;;;40.67;38.23;101107.13;5012635;28;20892;-84
2023/06/05 04:09:32;;;;;;;14.37;6.80;;;;;;;40.84;38.29;101111.78;5012648;28;20206;-84
2023/06/05 04:11:58;;;;;;;18.23;8.13;;;;;;;40.77;37.97;101114.19;5012756;28;20452;-84
2023/06/05 04:14:24;;;;;;;19.03;7.00;;;;;;;40.65;38.05;101122.97;5012623;28;20429;-83
2023/06/05 04:16:50;;;;;;;12.23;5.03;;;;;;;40.72;38.09;101120.56;5012587;28;20986;-84
2023/06/05 04:19:16;;;;;;;16.27;6.33;;;;;;;40.79;37.57;101126.31;5012829;28;20424;-85
2023/06/05 04:21:42;;;;;;;23.80;5.50;;;;;;;40.72;37.68;101122.50;5012471;28;20425;-84
2023/06/05 04:24:11;;;;;;;13.67;5.30;;;;;;;40.84;37.69;101127.31;5012704;28;20428;-86
2023/06/05 04:26:41;;;;;;;20.77;5.93;;;;;;;40.84;37.48;101130.81;5012528;28;20420;-84
2023/06/05 04:29:09;;;;;;;18.33;10.27;;;;;;;40.86;37.44;101131.28;5012429;28;20472;-84
2023/06/05 04:31:36;;;;;;;11.90;6.03;;;;;;;40.74;37.82;101122.97;5012468;28;20436;-86
2023/06/05 04:34:02;;;;;;;21.23;6.70;;;;;;;40.70;38.74;101122.81;5012055;28;20487;-84
2023/06/05 04:36:28;;;;;;;13.33;6.80;;;;;;;40.75;38.99;101127.28;5010845;28;20531;-85
2023/06/05 04:38:55;;;;;;;13.57;4.87;;;;;;;40.62;38.66;101122.78;5011866;28;20512;-85
2023/06/05 04:41:22;;;;;;;18.97;6.17;;;;;;;40.80;38.40;101122.47;5011980;28;20438;-84
2023/06/05 04:43:48;;;;;;;19.07;7.07;;;;;;;40.78;38.49;101129.38;5013416;28;20436;-84
2023/06/05 04:46:14;;;;;;;20.20;5.67;;;;;;;40.48;38.66;101139.25;5012113;28;20883;-85
2023/06/05 04:48:40;;;;;;;11.57;4.97;;;;;;;40.49;38.23;101138.13;5009365;28;20472;-84
2023/06/05 04:51:07;;;;;;;8.47;4.40;;;;;;;40.57;37.54;101131.91;5028135;28;20882;-84
2023/06/05 04:53:33;;;;;;;14.10;4.60;;;;;;;40.58;37.79;101125.38;5025131;28;20456;-84
2023/06/05 04:56:02;;;;;;;8.60;4.50;;;;;;;40.68;37.68;101124.25;5011926;28;20425;-85
2023/06/05 04:58:28;;;;;;;13.23;6.43;;;;;;;40.66;37.84;101130.00;5009161;28;20194;-85
2023/06/05 05:00:55;;;;;;;17.10;5.97;;;;;;;40.70;37.32;101141.84;5011925;28;20449;-85
2023/06/05 05:03:21;;;;;;;13.93;6.20;;;;;;;40.61;37.34;101138.31;5025282;28;20432;-84
2023/06/05 05:05:47;;;;;;;11.60;6.20;;;;;;;40.69;37.08;101134.00;5011807;28;20808;-85
2023/06/05 05:08:13;;;;;;;14.60;5.93;;;;;;;40.76;37.18;101140.59;5028173;28;20185;-85
2023/06/05 05:10:38;;;;;;;12.67;4.80;;;;;;;40.69;37.59;101153.84;5011780;28;20464;-84
2023/06/05 05:13:04;;;;;;;14.53;6.73;;;;;;;40.56;38.08;101154.78;5011618;28;20667;-84
2023/06/05 05:15:31;;;;;;;20.10;6.30;;;;;;;40.70;37.60;101158.19;5011625;28;20189;-85
2023/06/05 05:17:57;;;;;;;15.13;4.90;;;;;;;40.76;37.87;101156.06;5011514;28;20177;-85
2023/06/05 05:20:24;;;;;;;10.57;5.43;;;;;;;40.76;38.13;101159.63;5013229;28;20758;-85
2023/06/05 05:22:50;;;;;;;16.90;6.93;;;;;;;40.79;38.47;101164.41;5011436;28;20456;-84
2023/06/05 05:25:16;;;;;;;14.20;7.50;;;;;;;40.70;38.82;101176.38;5012975;28;20793;-85
2023/06/05 05:27:42;;;;;;;21.23;6.73;;;;;;;40.70;38.62;101179.94;5011173;28;20479;-86
2023/06/05 05:30:09;;;;;;;20.03;11.87;;;;;;;40.71;38.65;101194.34;5011126;28;20482;-85
2023/06/05 05:32:34;;;;;;;20.40;8.00;;;;;;;40.60;39.21;101188.38;5012702;28;20617;-87
2023/06/05 05:35:01;;;;;;;12.93;8.17;;;;;;;40.52;39.27;101189.97;5011441;28;20492;-84
2023/06/05 05:37:26;;;;;;;17.20;8.77;;;;;;;40.51;39.43;101179.41;5010838;28;20197;-85
2023/06/05 05:39:52;;;;;;;14.40;9.47;;;;;;;40.48;39.56;101188.19;5007305;28;20520;-84
2023/06/05 05:42:18;;;;;;;14.53;8.43;;;;;;;40.46;39.37;101182.25;5019921;28;20674;-86
2023/06/05 05:44:44;;;;;;;20.77;7.93;;;;;;;40.42;39.50;101192.16;5011412;28;20188;-85
2023/06/05 05:47:11;;;;;;;18.60;9.47;;;;;;;40.44;39.56;101184.47;5010201;28;20495;-86
2023/06/05 05:49:37;;;;;;;19.03;7.20;;;;;;;40.32;39.97;101190.50;5017314;28;20286;-84
2023/06/05 05:52:03;;;;;;;17.80;7.97;;;;;;;40.30;39.94;101187.31;5021747;28;20505;-84
2023/06/05 05:54:29;;;;;;;12.77;7.93;;;;;;;40.42;39.59;101190.22;5013687;28;20427;-84
2023/06/05 05:56:55;;;;;;;13.47;6.83;;;;;;;40.42;39.62;101192.94;5014313;28;20489;-84
2023/06/05 05:59:26;;;;;;;14.23;7.23;;;;;;;40.46;39.80;101195.84;5014497;28;20475;-88
2023/06/05 06:01:53;;;;;;;12.87;6.97;;;;;;;40.37;39.87;101189.56;5016339;28;20478;-87
2023/06/05 06:04:19;;;;;;;16.23;9.10;;;;;;;40.34;39.68;101193.75;5013467;28;20424;-87
2023/06/05 06:06:52;;;;;;;12.97;8.67;;;;;;;40.40;39.79;101197.91;5014031;28;20208;-84
2023/06/05 06:09:18;;;;;;;11.50;7.20;;;;;;;40.39;39.70;101200.94;5013388;28;20463;-84
2023/06/05 06:11:44;;;;;;;18.50;8.50;;;;;;;40.49;39.51;101208.84;5025650;28;20431;-84
2023/06/05 06:14:11;;;;;;;17.50;8.33;;;;;;;40.47;39.28;101209.16;5014326;28;20431;-87
2023/06/05 06:16:38;;;;;;;14.90;8.93;;;;;;;40.45;39.72;101221.41;5029554;28;21403;-85
2023/06/05 06:19:04;;;;;;;14.30;8.10;;;;;;;40.47;39.80;101227.34;5014256;28;20803;-84
2023/06/05 06:21:30;;;;;;;14.00;8.80;;;;;;;40.43;39.68;101226.38;5026175;28;20515;-85
2023/06/05 06:23:57;;;;;;;13.63;9.33;;;;;;;40.47;39.77;101221.91;5013383;28;20220;-85
2023/06/05 06:26:23;;;;;;;15.50;8.37;;;;;;;40.47;39.60;101224.63;5011424;28;20997;-86
2023/06/05 06:28:49;;;;;;;14.23;8.43;;;;;;;40.46;39.85;101217.59;5012714;28;20463;-83
2023/06/05 06:31:17;;;;;;;20.43;9.97;;;;;;;40.33;39.70;101216.59;5010390;28;20451;-89
2023/06/05 06:33:44;;;;;;;13.00;9.60;;;;;;;40.31;39.75;101226.16;5010112;28;20438;-86
2023/06/05 06:36:12;;;;;;;20.13;10.77;;;;;;;40.41;39.77;101217.75;5013965;28;20566;-84
2023/06/05 06:38:38;;;;;;;12.60;9.33;;;;;;;40.39;39.63;101217.25;5014263;28;20451;-84
2023/06/05 06:41:04;;;;;;;14.80;9.57;;;;;;;40.27;39.69;101228.72;5014412;28;20442;-86
2023/06/05 06:43:29;;;;;;;15.00;9.13;;;;;;;40.29;39.69;101232.72;5017959;28;20184;-86
2023/06/05 06:45:55;;;;;;;17.07;9.87;;;;;;;40.01;40.25;101236.72;5017431;28;20600;-84
2023/06/05 06:48:21;;;;;;;17.90;10.10;;;;;;;40.19;40.05;101235.72;5017138;28;20238;-84
2023/06/05 06:50:47;;;;;;;18.67;12.73;;;;;;;40.37;39.49;101242.03;5013739;28;20474;-85
2023/06/05 06:53:13;;;;;;;15.90;9.47;;;;;;;40.38;39.37;101246.34;5012923;28;20193;-86
2023/06/05 06:55:39;;;;;;;16.83;11.07;;;;;;;40.42;39.36;101255.47;5013317;28;20463;-86
2023/06/05 06:58:05;;;;;;;14.67;10.83;;;;;;;40.48;39.70;101251.53;5011526;28;20424;-87
2023/06/05 07:00:31;;;;;;;12.67;7.37;;;;;;;40.34;39.57;101242.66;5013188;28;20447;-87
2023/06/05 07:02:57;;;;;;;14.63;8.10;;;;;;;40.21;39.70;101257.97;5013299;28;20463;-87
2023/06/05 07:05:24;;;;;;;11.33;6.80;;;;;;;40.38;39.15;101264.56;5015121;28;20185;-85
2023/06/05 07:07:50;;;;;;;15.63;10.23;;;;;;;40.38;39.18;101276.25;5013712;28;21013;-84
2023/06/05 07:10:16;;;;;;;14.23;9.93;;;;;;;40.53;38.80;101270.44;5013582;28;20460;-84
2023/06/05 07:12:42;;;;;;;16.03;8.50;;;;;;;40.34;39.62;101277.22;5009975;28;20629;-84
2023/06/05 07:15:08;;;;;;;13.23;8.63;;;;;;;40.41;39.34;101274.84;5013690;28;20424;-84
2023/06/05 07:17:34;;;;;;;12.10;7.73;;;;;;;40.49;39.17;101263.22;5030138;28;20185;-85
2023/06/05 07:20:00;;;;;;;14.50;8.30;;;;;;;40.60;38.63;101269.16;5015081;28;20805;-86
2023/06/05 07:22:30;;;;;;;16.27;9.83;;;;;;;40.67;38.81;101274.94;5012331;28;20428;-87
2023/06/05 07:24:57;;;;;;;15.87;8.33;;;;;;;40.80;39.07;101263.94;5028787;28;20437;-85
2023/06/05 07:27:25;;;;;;;15.33;8.37;;;;;;;40.36;39.27;101272.25;5013927;28;20990;-86
2023/06/05 07:29:53;;;;;;;13.93;8.10;;;;;;;40.33;39.49;101264.69;5014682;28;20987;-84
2023/06/05 07:32:20;;;;;;;12.63;8.30;;;;;;;40.40;39.70;101265.88;5015306;28;20789;-84
2023/06/05 07:34:47;;;;;;;13.00;7.70;;;;;;;40.58;39.47;101283.09;5013582;28;20435;-84
2023/06/05 07:37:13;;;;;;;15.83;9.50;;;;;;;40.58;39.32;101276.81;5013744;28;20558;-84
2023/06/05 07:39:38;;;;;;;13.90;9.50;;;;;;;40.56;39.40;101282.59;5013445;28;20522;-86
2023/06/05 07:42:05;;;;;;;19.00;9.57;;;;;;;40.51;39.84;101280.00;5013584;28;20189;-87
2023/06/05 07:44:31;;;;;;;25.43;9.37;;;;;;;40.53;39.93;101275.88;5013578;28;20431;-88
2023/06/05 07:46:57;;;;;;;16.87;8.93;;;;;;;40.81;39.31;101268.25;5013230;28;20436;-86
2023/06/05 07:49:24;;;;;;;16.70;9.93;;;;;;;40.71;38.99;101267.78;5008193;28;20222;-85
2023/06/05 07:51:50;;;;;;;21.57;9.60;;;;;;;40.79;39.04;101277.84;5013478;28;20462;-85
2023/06/05 07:54:16;;;;;;;11.77;8.30;;;;;;;40.82;39.29;101277.22;5016333;28;20439;-85
2023/06/05 07:56:44;;;;;;;12.77;7.70;;;;;;;40.69;39.36;101278.13;5016257;28;20428;-84
2023/06/05 07:59:14;;;;;;;11.87;7.47;;;;;;;40.81;39.31;101275.63;5034299;28;20432;-85
2023/06/05 08:01:40;;;;;;;14.40;8.80;;;;;;;40.75;38.94;101280.41;5011295;28;20952;-86
2023/06/05 08:04:19;;;;;;;12.20;8.17;;;;;;;40.63;38.97;101280.19;5016511;28;20815;-85
2023/06/05 08:06:45;;;;;;;20.70;7.23;;;;;;;40.84;38.84;101271.47;5034215;28;20947;-87
2023/06/05 08:09:12;;;;;;;15.27;8.80;;;;;;;40.90;38.81;101278.38;5016342;28;20464;-87
2023/06/05 08:11:41;;;;;;;10.00;6.70;;;;;;;40.87;38.06;101279.00;5030695;28;20435;-86
2023/06/05 08:14:09;;;;;;;13.77;6.90;;;;;;;40.87;38.71;101282.50;5016088;28;20431;-86
2023/06/05 08:16:36;;;;;;;9.70;5.87;;;;;;;41.00;38.59;101269.91;5033884;28;20936;-86
2023/06/05 08:19:03;;;;;;;14.70;7.20;;;;;;;41.12;37.99;101272.00;5015900;28;20515;-89
2023/06/05 08:21:30;;;;;;;16.90;5.77;;;;;;;40.85;38.52;101283.97;5015171;28;20420;-84
2023/06/05 08:23:56;;;;;;;15.00;5.63;;;;;;;41.04;38.29;101268.97;5016121;28;20471;-83
2023/06/05 08:26:22;;;;;;;13.63;5.13;;;;;;;41.19;38.14;101261.44;5033709;28;20947;-85
2023/06/05 08:28:49;;;;;;;12.67;4.93;;;;;;;41.21;38.30;101267.41;5033266;28;20494;-83
2023/06/05 08:31:15;;;;;;;12.27;5.77;;;;;;;41.18;38.12;101260.66;5012056;28;20542;-83
2023/06/05 08:33:43;;;;;;;14.23;5.80;;;;;;;40.89;38.44;101274.06;5006422;28;21001;-84
2023/06/05 08:36:09;;;;;;;10.23;5.30;;;;;;;41.00;38.62;101280.81;5015350;28;20423;-83
2023/06/05 08:38:38;;;;;;;13.00;6.03;;;;;;;40.99;38.63;101284.66;5015756;28;20424;-85
2023/06/05 08:41:10;;;;;;;16.53;5.10;;;;;;;41.13;38.24;101282.59;5015651;28;20451;-83
2023/06/05 08:43:44;;;;;;;14.47;6.07;;;;;;;41.15;38.28;101285.81;5033468;28;20442;-83
2023/06/05 08:46:11;;;;;;;15.60;6.53;;;;;;;41.12;37.99;101297.31;5011694;28;20435;-83
2023/06/05 08:48:50;;;;;;;15.83;7.07;;;;;;;41.17;38.06;101283.56;5033141;28;20440;-83
2023/06/05 08:51:18;;;;;;;12.23;5.30;;;;;;;41.22;37.92;101280.69;5007038;28;20471;-84
2023/06/05 08:54:12;;;;;;;12.20;5.27;;;;;;;40.90;38.35;101283.81;5010676;28;20463;-83
2023/06/05 08:56:42;;;;;;;9.80;5.03;;;;;;;41.12;38.27;101275.53;5015422;28;20804;-86
2023/06/05 08:59:10;;;;;;;15.80;7.90;;;;;;;41.11;38.59;101278.59;5015081;28;20447;-85
2023/06/05 09:01:37;;;;;;;18.23;5.77;;;;;;;41.09;38.47;101284.34;5015294;28;20935;-86
2023/06/05 09:04:03;;;;;;;17.07;5.53;;;;;;;41.07;38.34;101270.28;5014719;28;20458;-85
2023/06/05 09:06:29;;;;;;;16.97;7.30;;;;;;;41.00;38.45;101272.63;5015083;28;20878;-85
2023/06/05 09:08:55;;;;;;;10.77;5.83;;;;;;;41.04;38.25;101270.91;5014479;28;20546;-90
2023/06/05 09:11:26;;;;;;;18.43;5.20;;;;;;;41.23;37.83;101284.19;5013362;28;20514;-85
2023/06/05 09:13:55;;;;;;;11.80;4.87;;;;;;;41.11;37.96;101273.94;5015359;28;20455;-85
2023/06/05 09:16:22;;;;;;;15.20;5.53;;;;;;;41.06;38.53;101287.69;5015001;28;20534;-86
2023/06/05 09:18:56;;;;;;;14.40;6.87;;;;;;;40.94;38.45;101279.34;5014211;28;20423;-86
2023/06/05 09:21:28;;;;;;;15.43;5.60;;;;;;;41.14;38.45;101276.03;5032940;28;20440;-87
2023/06/05 09:24:33;;;;;;;16.70;6.10;;;;;;;40.92;38.49;101273.44;5027697;28;20841;-87
2023/06/05 09:27:07;;;;;;;13.00;5.63;;;;;;;41.08;38.45;101250.09;5011596;28;20436;-85
2023/06/05 09:29:37;;;;;;;20.20;7.10;;;;;;;40.78;38.71;101257.22;5011994;28;20502;-84
2023/06/05 09:32:06;;;;;;;11.83;6.57;;;;;;;41.12;38.32;101247.53;5031323;28;20565;-83
2023/06/05 09:34:34;;;;;;;19.90;7.83;;;;;;;40.89;38.83;101250.38;5013989;28;20447;-87
2023/06/05 09:37:01;;;;;;;10.30;4.60;;;;;;;41.05;38.82;101242.56;5030628;28;20424;-85
2023/06/05 09:39:29;;;;;;;14.30;5.90;;;;;;;40.99;38.62;101238.38;5012454;28;20440;-85
2023/06/05 09:41:57;;;;;;;14.53;6.20;;;;;;;41.12;38.84;101233.91;5014039;28;20447;-86
2023/06/05 09:44:24;;;;;;;19.40;6.27;;;;;;;41.19;38.66;101248.66;5013470;28;20577;-85
2023/06/05 09:46:54;;;;;;;11.77;5.77;;;;;;;40.99;38.91;101233.75;5012086;28;20431;-85
2023/06/05 09:49:31;;;;;;;7.90;3.90;;;;;;;41.16;38.53;101243.06;5028645;28;20486;-84
2023/06/05 09:51:59;;;;;;;14.73;4.97;;;;;;;41.29;38.96;101237.44;5012459;28;20435;-83
2023/06/05 09:54:30;;;;;;;14.40;6.20;;;;;;;41.25;38.67;101231.06;5012383;28;20443;-82
2023/06/05 09:57:01;;;;;;;9.50;4.73;;;;;;;41.34;38.32;101234.59;5012600;28;20431;-81
2023/06/05 09:59:31;;;;;;;7.90;4.60;;;;;;;41.37;38.67;101227.69;5012103;28;20562;-83
2023/06/05 10:02:06;;;;;;;11.63;5.80;;;;;;;41.33;38.76;101226.75;5009230;28;21178;-82
2023/06/05 10:04:42;;;;;;;12.50;8.03;;;;;;;41.23;38.80;101224.31;5012708;28;20423;-82
2023/06/05 10:07:08;;;;;;;8.20;3.80;;;;;;;41.55;38.47;101223.81;5013466;28;20514;-83
2023/06/05 10:09:35;;;;;;;18.03;6.97;;;;;;;41.33;38.04;101224.81;5027962;28;20481;-83
2023/06/05 10:12:03;;;;;;;11.17;4.50;;;;;;;41.21;38.72;101218.41;5025259;28;20470;-82
2023/06/05 10:14:29;;;;;;;11.70;5.23;;;;;;;41.41;38.24;101222.41;5013759;28;20423;-83
2023/06/05 10:16:57;;;;;;;24.60;7.00;;;;;;;41.48;38.88;101222.72;5023051;28;20493;-83
2023/06/05 10:19:24;;;;;;;18.40;6.93;;;;;;;41.26;39.11;101231.84;5018367;28;20420;-82
2023/06/05 10:21:51;;;;;;;14.57;6.07;;;;;;;41.30;38.88;101233.59;5023156;28;20423;-82
2023/06/05 10:24:31;;;;;;;11.07;6.30;;;;;;;41.46;38.68;101235.88;5031224;28;20498;-84
2023/06/05 10:27:16;;;;;;;13.67;5.70;;;;;;;41.54;38.66;101224.94;5010698;28;20424;-82
2023/06/05 10:30:06;;;;;;;10.83;7.17;;;;;;;41.52;38.37;101229.13;5032212;28;20453;-83
2023/06/05 10:33:05;;;;;;;13.70;6.57;;;;;;;41.59;38.36;101224.78;5012742;28;20836;-84
2023/06/05 10:36:02;;;;;;;15.57;7.63;;;;;;;41.44;38.60;101224.50;4981754;28;20481;-84
2023/06/05 10:38:29;;;;;;;14.53;6.70;;;;;;;41.55;38.46;101210.22;5012228;28;20497;-84
2023/06/05 10:41:00;;;;;;;11.30;5.63;;;;;;;41.64;38.61;101215.66;5017759;28;20526;-85
2023/06/05 10:43:30;;;;;;;14.93;7.90;;;;;;;41.65;38.15;101219.19;5017721;28;20451;-84
2023/06/05 10:45:58;;;;;;;15.73;8.20;;;;;;;41.37;38.43;101197.75;5034104;28;20450;-84
2023/06/05 10:49:01;;;;;;;13.70;7.37;;;;;;;41.48;38.70;101193.56;5017859;28;20809;-85
2023/06/05 10:51:42;;;;;;;17.37;8.30;;;;;;;41.50;38.64;101199.50;5027441;28;20510;-82
2023/06/05 10:54:29;;;;;;;13.70;7.20;;;;;;;41.45;38.49;101212.50;5034474;28;20831;-85
2023/06/05 10:57:03;;;;;;;11.87;6.80;;;;;;;41.61;38.50;101199.94;5008701;28;20434;-83
2023/06/05 10:59:31;;;;;;;12.83;8.20;;;;;;;41.64;38.24;101202.03;5030526;28;20531;-85
2023/06/05 11:02:19;;;;;;;11.57;6.67;;;;;;;41.26;38.95;101210.06;5035481;28;20428;-85
2023/06/05 11:04:47;;;;;;;10.10;6.60;;;;;;;41.53;38.08;101207.00;5010299;28;20435;-85
2023/06/05 11:07:26;;;;;;;16.37;8.77;;;;;;;41.61;38.02;101191.78;5029338;28;20435;-81
2023/06/05 11:10:06;;;;;;;11.23;6.73;;;;;;;41.55;38.42;101190.34;5029586;28;20538;-82
2023/06/05 11:12:35;;;;;;;14.57;7.40;;;;;;;41.52;38.13;101204.63;5013376;28;20428;-81
2023/06/05 11:15:06;;;;;;;15.33;7.60;;;;;;;41.57;38.38;101205.25;5032496;28;20859;-82
2023/06/05 11:17:34;;;;;;;15.53;8.77;;;;;;;41.68;38.14;101205.72;5023335;28;20477;-83
2023/06/05 11:20:10;;;;;;;13.77;7.67;;;;;;;41.41;38.63;101206.06;5016139;28;20419;-83
2023/06/05 11:22:55;;;;;;;15.00;7.70;;;;;;;41.44;38.52;101210.91;5011911;28;20462;-82
2023/06/05 11:25:21;;;;;;;9.20;6.33;;;;;;;41.67;38.17;101206.81;5033409;28;20423;-82
2023/06/05 11:27:48;;;;;;;16.70;6.97;;;;;;;41.55;38.11;101212.13;5032874;28;20813;-83
2023/06/05 11:30:16;;;;;;;13.70;8.57;;;;;;;41.56;38.39;101202.88;5016945;28;20466;-81
2023/06/05 11:32:43;;;;;;;11.37;6.83;;;;;;;41.81;37.67;101206.69;5026193;28;20425;-82
2023/06/05 11:35:10;;;;;;;14.63;7.67;;;;;;;41.93;37.53;101197.78;5015981;28;20430;-81
2023/06/05 11:37:37;;;;;;;21.60;8.30;;;;;;;41.83;37.78;101197.03;5016275;28;20439;-80
2023/06/05 11:40:11;;;;;;;20.83;9.00;;;;;;;41.73;37.36;101191.09;5034256;28;20431;-79
2023/06/05 11:42:40;;;;;;;18.03;9.23;;;;;;;41.86;37.71;101192.84;5031463;28;20833;-82
2023/06/05 11:45:13;;;;;;;13.97;8.20;;;;;;;41.55;38.21;101202.03;5033898;28;20943;-82
2023/06/05 11:47:40;;;;;;;18.30;7.93;;;;;;;41.65;37.81;101198.19;5016497;28;20959;-82
2023/06/05 11:50:13;;;;;;;15.20;7.97;;;;;;;41.81;37.58;101191.13;5033068;28;20494;-83
2023/06/05 11:52:41;;;;;;;11.10;6.30;;;;;;;41.84;37.56;101189.66;5032588;28;20447;-83
2023/06/05 11:55:15;;;;;;;12.60;6.10;;;;;;;41.76;37.41;101185.84;5015797;28;20943;-82
2023/06/05 11:57:46;;;;;;;16.03;6.40;;;;;;;41.79;37.37;101196.06;5013346;28;20441;-84
2023/06/05 12:00:14;;;;;;;11.17;6.13;;;;;;;41.93;36.90;101192.34;5029837;28;20976;-80
2023/06/05 12:02:43;;;;;;;13.83;5.73;;;;;;;41.92;36.97;101177.91;5034147;28;20447;-80
2023/06/05 12:05:10;;;;;;;10.43;5.20;;;;;;;41.84;36.83;101187.72;5016191;28;20434;-81
2023/06/05 12:07:37;;;;;;;13.47;5.50;;;;;;;41.85;36.77;101175.72;5016431;28;20789;-81
2023/06/05 12:10:08;;;;;;;21.77;6.80;;;;;;;42.00;37.17;101188.00;5015640;28;20490;-82
2023/06/05 12:12:35;;;;;;;12.87;5.90;;;;;;;41.96;37.11;101178.88;5016296;28;20514;-81
2023/06/05 12:15:17;;;;;;;11.20;6.27;;;;;;;42.04;36.94;101185.41;5015490;28;20498;-81
2023/06/05 12:17:54;;;;;;;12.97;6.00;;;;;;;42.12;36.33;101176.41;5016152;28;20554;-82
2023/06/05 12:20:21;;;;;;;12.93;5.70;;;;;;;42.06;36.77;101167.63;5014940;28;20421;-81
2023/06/05 12:22:48;;;;;;;11.40;6.10;;;;;;;42.10;36.72;101182.16;5029366;28;20428;-84
2023/06/05 12:25:18;;;;;;;12.23;6.23;;;;;;;42.14;36.50;101168.69;5015647;28;20856;-82
2023/06/05 12:27:45;;;;;;;10.00;4.63;;;;;;;42.13;36.71;101169.84;5015874;28;20839;-84
2023/06/05 12:30:12;;;;;;;13.00;5.90;;;;;;;41.92;36.48;101166.22;5033783;28;20994;-83
2023/06/05 12:32:39;;;;;;;13.80;6.13;;;;;;;42.05;36.29;101144.22;5015265;28;20430;-83
2023/06/05 12:35:08;;;;;;;8.73;5.20;;;;;;;42.18;36.60;101136.19;5015374;28;20423;-82
2023/06/05 12:37:38;;;;;;;9.80;5.00;;;;;;;42.13;36.40;101142.56;5014948;28;20434;-82
2023/06/05 12:40:10;;;;;;;12.83;5.03;;;;;;;42.06;36.69;101134.13;5014199;28;20424;-82
2023/06/05 12:42:38;;;;;;;10.70;5.03;;;;;;;42.32;36.72;101129.34;5014965;28;20920;-83
2023/06/05 12:45:06;;;;;;;11.50;4.40;;;;;;;42.11;36.12;101129.28;5014704;28;20432;-81
2023/06/05 12:47:33;;;;;;;11.77;5.27;;;;;;;42.13;36.17;101123.50;5015014;28;20420;-83
2023/06/05 12:49:59;;;;;;;12.63;6.33;;;;;;;42.22;35.96;101121.53;5013811;28;20567;-81
2023/06/05 12:52:25;;;;;;;9.03;4.93;;;;;;;42.29;35.75;101119.06;5034528;28;20877;-83
2023/06/05 12:54:53;;;;;;;12.20;5.53;;;;;;;42.18;36.06;101115.16;5014971;28;20422;-82
2023/06/05 12:57:21;;;;;;;9.47;4.90;;;;;;;42.19;35.56;101116.75;5015504;28;20419;-82
2023/06/05 12:59:47;;;;;;;11.00;5.10;;;;;;;42.31;35.87;101113.31;5014887;28;20447;-81
2023/06/05 13:02:13;;;;;;;24.53;6.70;;;;;;;42.27;35.78;101107.72;5014623;28;20435;-82
2023/06/05 13:04:40;;;;;;;15.90;6.60;;;;;;;42.22;36.26;101105.19;5029261;28;20986;-82